createdAt,value
2018-11-06T00:01:34.765Z,76.03
2018-11-06T00:04:03.384Z,76.86
2018-11-06T00:06:31.993Z,77.28
2018-11-06T00:09:00.160Z,77.54
2018-11-06T00:11:28.354Z,77.83
2018-11-06T00:13:56.522Z,77.40
2018-11-06T00:16:24.696Z,76.40
2018-11-06T00:18:52.890Z,76.52
2018-11-06T00:21:21.024Z,77.21
2018-11-06T00:23:49.206Z,77.55
2018-11-06T00:26:17.374Z,77.78
2018-11-06T00:28:45.642Z,78.11
2018-11-06T00:31:13.744Z,77.83
2018-11-06T00:33:42.010Z,77.03
2018-11-06T00:36:10.184Z,77.01
2018-11-06T00:38:38.344Z,77.70
2018-11-06T00:41:06.520Z,77.41
2018-11-06T00:43:34.658Z,77.33
2018-11-06T00:46:02.778Z,77.76
2018-11-06T00:48:30.939Z,78.38
2018-11-06T00:50:59.149Z,78.57
2018-11-06T00:53:27.363Z,78.89
2018-11-06T00:55:55.548Z,78.53
2018-11-06T00:58:23.701Z,78.69
2018-11-06T01:00:51.981Z,78.98
2018-11-06T01:03:20.265Z,79.34
2018-11-06T01:05:48.406Z,79.34
2018-11-06T01:08:16.512Z,80.05
2018-11-06T01:10:44.686Z,80.21
2018-11-06T01:13:12.833Z,79.98
2018-11-06T01:15:41.037Z,80.16
2018-11-06T01:18:09.240Z,80.45
2018-11-06T01:20:37.406Z,79.05
2018-11-06T01:23:05.563Z,79.70
2018-11-06T01:25:33.676Z,79.65
2018-11-06T01:28:01.884Z,79.61
2018-11-06T01:30:30.145Z,79.83
2018-11-06T01:32:58.259Z,79.96
2018-11-06T01:35:26.401Z,80.68
2018-11-06T01:37:54.655Z,80.31
2018-11-06T01:40:22.933Z,80.73
2018-11-06T01:42:51.125Z,81.24
2018-11-06T01:45:20.008Z,81.02
2018-11-06T01:47:48.157Z,81.33
2018-11-06T01:50:17.443Z,81.44
2018-11-06T01:52:46.525Z,81.58
2018-11-06T01:55:14.657Z,81.43
2018-11-06T01:57:42.883Z,80.80
2018-11-06T02:00:14.467Z,80.89
2018-11-06T02:02:42.765Z,81.10
2018-11-06T02:05:12.663Z,81.21
2018-11-06T02:07:41.489Z,81.27
2018-11-06T02:10:11.139Z,81.26
2018-11-06T02:12:39.336Z,81.20
2018-11-06T02:15:08.137Z,81.63
2018-11-06T02:17:36.483Z,81.55
2018-11-06T02:20:05.128Z,81.29
2018-11-06T02:22:33.244Z,81.53
2018-11-06T02:25:01.416Z,81.90
2018-11-06T02:27:29.769Z,81.27
2018-11-06T02:29:57.917Z,81.92
2018-11-06T02:32:26.129Z,81.47
2018-11-06T02:34:54.239Z,82.15
2018-11-06T02:37:22.533Z,82.21
2018-11-06T02:39:50.686Z,82.75
2018-11-06T02:42:18.833Z,82.95
2018-11-06T02:44:47.055Z,83.03
2018-11-06T02:47:15.189Z,83.15
2018-11-06T02:49:43.350Z,83.94
2018-11-06T02:52:11.525Z,83.92
2018-11-06T02:54:39.705Z,83.59
2018-11-06T02:57:07.942Z,83.93
2018-11-06T02:59:36.185Z,84.53
2018-11-06T03:02:04.568Z,84.71
2018-11-06T03:04:32.673Z,84.88
2018-11-06T03:07:00.815Z,84.50
2018-11-06T03:09:28.987Z,84.90
2018-11-06T03:11:57.174Z,84.80
2018-11-06T03:14:25.344Z,84.80
2018-11-06T03:16:53.488Z,84.64
2018-11-06T03:19:21.624Z,84.51
2018-11-06T03:21:49.789Z,84.97
2018-11-06T03:24:17.935Z,85.35
2018-11-06T03:26:46.126Z,85.33
2018-11-06T03:29:14.287Z,85.33
2018-11-06T03:31:42.472Z,85.82
2018-11-06T03:34:10.679Z,85.50
2018-11-06T03:36:38.849Z,85.22
2018-11-06T03:39:08.325Z,86.59
2018-11-06T03:41:36.503Z,85.44
2018-11-06T03:44:04.701Z,86.34
2018-11-06T03:46:32.883Z,86.59
2018-11-06T03:49:01.156Z,86.23
2018-11-06T03:51:29.563Z,86.53
2018-11-06T03:53:58.537Z,87.27
2018-11-06T03:56:26.669Z,86.65
2018-11-06T03:58:54.828Z,87.21
2018-11-06T04:01:22.974Z,87.17
2018-11-06T04:03:51.315Z,86.85
2018-11-06T04:06:19.496Z,86.85
2018-11-06T04:08:47.617Z,87.39
2018-11-06T04:11:15.761Z,86.97
2018-11-06T04:13:43.847Z,87.20
2018-11-06T04:16:12.015Z,87.86
2018-11-06T04:18:40.187Z,87.04
2018-11-06T04:21:08.451Z,87.04
2018-11-06T04:23:36.609Z,87.00
2018-11-06T04:26:05.089Z,87.61
2018-11-06T04:28:33.267Z,88.21
2018-11-06T04:31:01.447Z,88.05
2018-11-06T04:33:29.628Z,88.72
2018-11-06T04:35:57.803Z,88.22
2018-11-06T04:38:25.992Z,88.08
2018-11-06T04:40:54.152Z,87.73
2018-11-06T04:43:22.506Z,88.00
2018-11-06T04:45:50.659Z,88.69
2018-11-06T04:48:18.860Z,88.55
2018-11-06T04:50:47.069Z,88.79
2018-11-06T04:53:15.259Z,88.98
2018-11-06T04:55:43.452Z,89.44
2018-11-06T04:58:11.590Z,89.31
2018-11-06T05:00:39.726Z,89.41
2018-11-06T05:03:07.933Z,89.99
2018-11-06T05:05:36.188Z,89.47
2018-11-06T05:08:04.393Z,89.72
2018-11-06T05:10:32.550Z,89.56
2018-11-06T05:13:00.704Z,90.51
2018-11-06T05:15:28.807Z,90.56
2018-11-06T05:17:56.954Z,90.75
2018-11-06T05:20:25.125Z,89.99
2018-11-06T05:22:53.307Z,90.63
2018-11-06T05:25:21.523Z,90.53
2018-11-06T05:27:49.703Z,89.59
2018-11-06T05:30:17.903Z,90.39
2018-11-06T05:32:46.118Z,90.64
2018-11-06T05:35:14.224Z,90.80
2018-11-06T05:37:42.465Z,90.51
2018-11-06T05:42:56.534Z,90.21
2018-11-06T05:45:24.782Z,90.00
2018-11-06T05:47:52.873Z,90.86
2018-11-06T05:50:21.040Z,90.90
2018-11-06T05:52:49.238Z,90.78
2018-11-06T05:55:17.404Z,91.54
2018-11-06T05:57:45.684Z,91.78
2018-11-06T06:00:13.915Z,90.79
2018-11-06T06:02:42.023Z,90.80
2018-11-06T06:05:10.215Z,91.59
2018-11-06T06:07:38.373Z,90.77
2018-11-06T06:10:06.955Z,91.25
2018-11-06T06:12:35.381Z,91.03
2018-11-06T06:15:03.624Z,92.11
2018-11-06T06:17:31.767Z,91.96
2018-11-06T06:19:59.883Z,91.30
2018-11-06T06:22:28.013Z,91.85
2018-11-06T06:24:59.544Z,92.01
2018-11-06T06:27:29.290Z,91.64
2018-11-06T06:29:57.542Z,92.21
2018-11-06T06:32:25.727Z,91.81
2018-11-06T06:34:53.917Z,91.49
2018-11-06T06:37:22.031Z,92.20
2018-11-06T06:39:50.293Z,91.28
2018-11-06T06:42:18.494Z,91.97
2018-11-06T06:44:46.643Z,91.56
2018-11-06T06:47:14.854Z,91.67
2018-11-06T06:49:43.286Z,92.36
2018-11-06T06:52:11.524Z,92.32
2018-11-06T06:54:39.835Z,92.08
2018-11-06T06:57:07.910Z,91.91
2018-11-06T06:59:36.077Z,91.69
2018-11-06T07:02:04.498Z,91.34
2018-11-06T07:04:32.749Z,90.70
2018-11-06T07:07:01.036Z,91.60
2018-11-06T07:09:29.310Z,90.85
2018-11-06T07:11:57.552Z,91.25
2018-11-06T07:14:25.776Z,90.46
2018-11-06T07:16:53.980Z,90.67
2018-11-06T07:19:22.160Z,90.16
2018-11-06T07:21:50.440Z,90.46
2018-11-06T07:24:18.966Z,89.89
2018-11-06T07:26:47.126Z,90.21
2018-11-06T07:29:15.298Z,89.32
2018-11-06T07:31:43.460Z,89.73
2018-11-06T07:34:11.776Z,90.14
2018-11-06T07:36:39.977Z,89.20
2018-11-06T07:39:09.857Z,89.66
2018-11-06T07:41:38.508Z,89.50
2018-11-06T07:44:06.795Z,88.77
2018-11-06T07:46:35.949Z,88.89
2018-11-06T07:49:04.138Z,88.60
2018-11-06T07:51:32.394Z,88.71
2018-11-06T07:54:00.612Z,88.29
2018-11-06T07:56:28.840Z,88.13
2018-11-06T07:58:57.040Z,87.81
2018-11-06T08:01:25.264Z,87.83
2018-11-06T08:03:53.522Z,87.35
2018-11-06T08:06:21.767Z,87.39
2018-11-06T08:08:49.977Z,86.93
2018-11-06T08:11:18.118Z,86.70
2018-11-06T08:13:46.328Z,86.65
2018-11-06T08:16:14.534Z,85.80
2018-11-06T08:18:42.881Z,85.64
2018-11-06T08:21:11.048Z,85.57
2018-11-06T08:23:39.282Z,85.21
2018-11-06T08:26:07.558Z,84.75
2018-11-06T08:28:35.743Z,84.97
2018-11-06T08:31:04.155Z,84.96
2018-11-06T08:33:32.216Z,84.55
2018-11-06T08:36:00.388Z,84.91
2018-11-06T08:38:28.545Z,84.78
2018-11-06T08:40:56.842Z,83.88
2018-11-06T08:43:25.126Z,83.96
2018-11-06T08:45:53.522Z,84.01
2018-11-06T08:48:21.644Z,83.78
2018-11-06T08:50:49.894Z,83.74
2018-11-06T08:53:18.115Z,83.63
2018-11-06T08:55:46.612Z,82.86
2018-11-06T08:58:14.828Z,82.81
2018-11-06T09:00:42.998Z,82.66
2018-11-06T09:03:11.172Z,82.35
2018-11-06T09:05:39.348Z,82.44
2018-11-06T09:08:07.535Z,82.18
2018-11-06T09:10:35.778Z,81.77
2018-11-06T09:13:03.948Z,82.00
2018-11-06T09:15:32.090Z,80.97
2018-11-06T09:18:00.273Z,81.07
2018-11-06T09:20:28.472Z,81.27
2018-11-06T09:22:56.758Z,80.97
2018-11-06T09:25:24.919Z,80.70
2018-11-06T09:27:53.137Z,80.68
2018-11-06T09:30:21.412Z,80.40
2018-11-06T09:32:49.594Z,79.88
2018-11-06T09:35:17.770Z,79.07
2018-11-06T09:37:46.312Z,79.22
2018-11-06T09:40:15.963Z,78.85
2018-11-06T09:42:44.185Z,79.02
2018-11-06T09:45:13.204Z,78.89
2018-11-06T09:47:41.396Z,78.42
2018-11-06T09:50:11.880Z,77.95
2018-11-06T09:52:40.205Z,77.85
2018-11-06T09:55:08.411Z,77.44
2018-11-06T09:57:36.542Z,77.57
2018-11-06T10:00:07.539Z,77.55
2018-11-06T10:02:35.670Z,77.12
2018-11-06T10:05:03.888Z,76.97
2018-11-06T10:07:32.032Z,76.83
2018-11-06T10:10:00.245Z,76.58
2018-11-06T10:12:28.409Z,77.21
2018-11-06T10:14:56.578Z,76.26
2018-11-06T10:17:24.737Z,76.57
2018-11-06T10:19:52.850Z,76.12
2018-11-06T10:22:21.012Z,76.01
2018-11-06T10:24:49.239Z,76.39
2018-11-06T10:27:17.460Z,74.36
2018-11-06T10:29:45.621Z,74.66
2018-11-06T10:32:13.841Z,74.60
2018-11-06T10:34:42.015Z,74.66
2018-11-06T10:37:10.368Z,74.56
2018-11-06T10:39:38.725Z,74.79
2018-11-06T10:42:06.870Z,74.54
2018-11-06T10:44:35.357Z,74.21
2018-11-06T10:47:03.531Z,73.93
2018-11-06T10:49:31.717Z,73.69
2018-11-06T10:52:00.238Z,74.03
2018-11-06T10:54:28.404Z,72.89
2018-11-06T10:56:56.535Z,72.48
2018-11-06T10:59:24.787Z,72.98
2018-11-06T11:01:58.345Z,73.41
2018-11-06T11:04:27.540Z,72.67
2018-11-06T11:06:55.706Z,72.58
2018-11-06T11:09:23.891Z,72.54
2018-11-06T11:11:52.200Z,71.50
2018-11-06T11:14:20.401Z,70.95
2018-11-06T11:16:48.568Z,71.65
2018-11-06T11:19:16.721Z,71.81
2018-11-06T11:21:44.896Z,71.24
2018-11-06T11:24:13.109Z,71.17
2018-11-06T11:26:41.435Z,70.61
2018-11-06T11:29:09.619Z,70.27
2018-11-06T11:31:37.840Z,69.80
2018-11-06T11:34:06.160Z,70.05
2018-11-06T11:36:34.322Z,69.99
2018-11-06T11:39:02.598Z,70.06
2018-11-06T11:41:30.775Z,69.33
2018-11-06T11:43:59.031Z,69.18
2018-11-06T11:46:27.273Z,69.03
2018-11-06T11:48:55.536Z,69.20
2018-11-06T11:51:23.715Z,68.85
2018-11-06T11:53:51.983Z,68.53
2018-11-06T11:56:20.239Z,68.12
2018-11-06T11:58:48.442Z,68.41
2018-11-06T12:01:16.674Z,67.72
2018-11-06T12:03:44.915Z,68.80
2018-11-06T12:06:13.160Z,67.21
2018-11-06T12:08:41.343Z,68.06
2018-11-06T12:11:09.584Z,67.95
2018-11-06T12:13:37.743Z,67.08
2018-11-06T12:16:05.939Z,66.60
2018-11-06T12:18:34.161Z,67.17
2018-11-06T12:21:02.399Z,66.81
2018-11-06T12:23:30.601Z,67.35
2018-11-06T12:25:58.783Z,67.42
2018-11-06T12:28:26.967Z,67.49
2018-11-06T12:30:55.096Z,67.96
2018-11-06T12:33:23.273Z,68.17
2018-11-06T12:35:51.444Z,68.36
2018-11-06T12:38:19.592Z,68.74
2018-11-06T12:40:47.780Z,68.47
2018-11-06T12:43:15.970Z,69.04
2018-11-06T12:45:44.118Z,69.43
2018-11-06T12:48:12.261Z,69.03
2018-11-06T12:50:40.441Z,68.94
2018-11-06T12:53:08.645Z,68.49
2018-11-06T12:55:36.854Z,68.01
2018-11-06T12:58:05.447Z,68.92
2018-11-06T13:00:33.677Z,68.33
2018-11-06T13:03:01.843Z,68.44
2018-11-06T13:05:30.187Z,68.17
2018-11-06T13:07:58.513Z,68.87
2018-11-06T13:10:26.748Z,69.25
2018-11-06T13:12:54.889Z,69.80
2018-11-06T13:15:23.099Z,70.25
2018-11-06T13:17:51.270Z,70.24
2018-11-06T13:20:19.389Z,70.52
2018-11-06T13:22:47.586Z,70.15
2018-11-06T13:25:15.784Z,70.50
2018-11-06T13:27:44.019Z,71.20
2018-11-06T13:30:15.687Z,70.84
2018-11-06T13:32:44.738Z,70.88
2018-11-06T13:35:12.909Z,71.22
2018-11-06T13:37:41.182Z,70.88
2018-11-06T13:40:13.796Z,70.57
2018-11-06T13:42:42.329Z,70.67
2018-11-06T13:45:13.832Z,71.00
2018-11-06T13:47:41.956Z,70.46
2018-11-06T13:50:10.192Z,70.87
2018-11-06T13:52:38.559Z,70.75
2018-11-06T13:55:08.031Z,71.38
2018-11-06T13:57:36.268Z,71.54
2018-11-06T14:00:06.875Z,72.43
2018-11-06T14:02:35.147Z,72.45
2018-11-06T14:05:03.293Z,71.66
2018-11-06T14:07:31.561Z,71.37
2018-11-06T14:09:59.768Z,71.80
2018-11-06T14:12:27.898Z,71.66
2018-11-06T14:14:58.909Z,72.07
2018-11-06T14:17:27.075Z,72.48
2018-11-06T14:19:55.345Z,72.67
2018-11-06T14:22:23.526Z,72.92
2018-11-06T14:24:51.851Z,72.87
2018-11-06T14:27:20.170Z,72.49
2018-11-06T14:29:48.583Z,72.03
2018-11-06T14:32:16.787Z,72.08
2018-11-06T14:34:44.919Z,72.37
2018-11-06T14:37:13.087Z,72.57
2018-11-06T14:39:41.343Z,72.46
2018-11-06T14:42:09.596Z,72.72
2018-11-06T14:44:38.067Z,72.87
2018-11-06T14:47:06.298Z,73.28
2018-11-06T14:49:34.467Z,72.92
2018-11-06T14:52:02.593Z,72.89
2018-11-06T14:54:30.783Z,72.98
2018-11-06T14:56:59.011Z,73.44
2018-11-06T14:59:27.327Z,74.55
2018-11-06T15:01:55.599Z,74.95
2018-11-06T15:04:23.833Z,75.28
2018-11-06T15:06:52.014Z,75.30
2018-11-06T15:09:20.222Z,76.00
2018-11-06T15:11:48.448Z,76.10
2018-11-06T15:14:16.668Z,75.25
2018-11-06T15:16:44.849Z,76.14
2018-11-06T15:19:13.168Z,75.61
2018-11-06T15:21:41.423Z,75.84
2018-11-06T15:24:09.614Z,75.38
2018-11-06T15:26:38.175Z,75.92
2018-11-06T15:29:06.959Z,76.57
2018-11-06T15:31:35.174Z,76.57
2018-11-06T15:34:03.503Z,75.54
2018-11-06T15:36:31.710Z,75.45
2018-11-06T15:38:59.923Z,75.64
2018-11-06T15:41:28.166Z,76.43
2018-11-06T15:43:56.390Z,76.50
2018-11-06T15:46:24.599Z,77.50
2018-11-06T15:48:52.842Z,78.02
2018-11-06T15:51:21.220Z,78.30
2018-11-06T15:53:49.471Z,78.78
2018-11-06T15:56:17.644Z,79.08
2018-11-06T15:58:45.881Z,79.43
2018-11-06T16:01:15.124Z,78.38
2018-11-06T16:03:43.299Z,78.91
2018-11-06T16:06:11.537Z,78.79
2018-11-06T16:08:39.780Z,79.48
2018-11-06T16:11:08.072Z,79.66
2018-11-06T16:13:36.355Z,80.73
2018-11-06T16:16:05.041Z,81.39
2018-11-06T16:18:33.261Z,82.04
2018-11-06T16:21:01.478Z,80.36
2018-11-06T16:23:29.617Z,80.25
2018-11-06T16:25:57.762Z,80.15
2018-11-06T16:28:25.914Z,79.77
2018-11-06T16:30:54.142Z,79.85
2018-11-06T16:33:22.307Z,80.55
2018-11-06T16:35:50.502Z,80.58
2018-11-06T16:38:18.644Z,81.51
2018-11-06T16:40:46.772Z,80.86
2018-11-06T16:43:14.970Z,81.35
2018-11-06T16:45:43.177Z,81.02
2018-11-06T16:48:11.420Z,81.93
2018-11-06T16:50:39.559Z,81.54
2018-11-06T16:53:07.709Z,81.27
2018-11-06T16:55:35.858Z,80.99
2018-11-06T16:58:03.987Z,80.93
2018-11-06T17:00:32.149Z,81.68
2018-11-06T17:03:00.412Z,81.70
2018-11-06T17:05:28.596Z,81.72
2018-11-06T17:07:56.809Z,82.48
2018-11-06T17:10:25.032Z,82.42
2018-11-06T17:12:53.243Z,81.78
2018-11-06T17:15:22.448Z,82.02
2018-11-06T17:17:51.788Z,82.40
2018-11-06T17:20:20.466Z,82.48
2018-11-06T17:22:48.687Z,82.10
2018-11-06T17:25:18.059Z,82.16
2018-11-06T17:27:46.286Z,82.28
2018-11-06T17:30:15.748Z,82.41
2018-11-06T17:32:44.252Z,82.26
2018-11-06T17:35:14.025Z,83.18
2018-11-06T17:37:42.436Z,83.51
2018-11-06T17:40:13.475Z,83.71
2018-11-06T17:42:41.947Z,83.58
2018-11-06T17:45:12.610Z,83.24
2018-11-06T17:47:41.246Z,83.87
2018-11-06T17:50:10.809Z,84.08
2018-11-06T17:52:38.979Z,84.50
2018-11-06T17:55:08.105Z,84.29
2018-11-06T17:57:36.983Z,84.54
2018-11-06T18:00:07.420Z,84.59
2018-11-06T18:02:35.638Z,84.69
2018-11-06T18:05:03.873Z,84.72
2018-11-06T18:07:32.077Z,84.75
2018-11-06T18:10:00.273Z,85.16
2018-11-06T18:12:28.662Z,85.33
2018-11-06T18:14:56.857Z,85.51
2018-11-06T18:17:25.213Z,85.28
2018-11-06T18:19:53.455Z,85.83
2018-11-06T18:22:21.710Z,85.93
2018-11-06T18:24:49.951Z,86.07
2018-11-06T18:27:18.146Z,85.43
2018-11-06T18:29:46.436Z,85.14
2018-11-06T18:32:14.773Z,85.67
2018-11-06T18:34:42.904Z,85.91
2018-11-06T18:37:11.092Z,85.67
2018-11-06T18:39:39.262Z,85.79
2018-11-06T18:42:07.516Z,85.69
2018-11-06T18:44:35.672Z,86.11
2018-11-06T18:47:03.840Z,86.37
2018-11-06T18:49:32.096Z,86.45
2018-11-06T18:52:00.330Z,86.00
2018-11-06T18:54:28.618Z,85.68
2018-11-06T18:56:56.822Z,86.15
2018-11-06T18:59:25.242Z,86.06
2018-11-06T19:01:53.455Z,86.19
2018-11-06T19:04:21.737Z,86.57
2018-11-06T19:06:49.942Z,86.60
2018-11-06T19:09:18.918Z,87.01
2018-11-06T19:11:47.090Z,86.60
2018-11-06T19:14:15.379Z,86.52
2018-11-06T19:16:43.581Z,86.65
2018-11-06T19:19:11.836Z,86.05
2018-11-06T19:21:40.090Z,86.19
2018-11-06T19:24:08.357Z,86.25
2018-11-06T19:26:36.692Z,87.01
2018-11-06T19:29:05.248Z,86.92
2018-11-06T19:31:33.522Z,87.01
2018-11-06T19:34:01.774Z,87.38
2018-11-06T19:36:30.152Z,87.39
2018-11-06T19:38:58.410Z,87.73
2018-11-06T19:41:26.662Z,87.17
2018-11-06T19:43:54.878Z,87.80
2018-11-06T19:46:23.184Z,86.83
2018-11-06T19:48:52.291Z,87.37
2018-11-06T19:51:20.503Z,88.08
2018-11-06T19:53:48.895Z,88.48
2018-11-06T19:56:17.188Z,88.86
2018-11-06T19:58:45.481Z,89.67
2018-11-06T20:01:13.985Z,89.11
2018-11-06T20:03:42.872Z,88.39
2018-11-06T20:06:11.359Z,88.33
2018-11-06T20:08:40.288Z,88.47
2018-11-06T20:11:08.752Z,88.57
2018-11-06T20:13:36.991Z,88.84
2018-11-06T20:16:05.527Z,90.29
2018-11-06T20:18:34.905Z,90.25
2018-11-06T20:21:03.359Z,90.55
2018-11-06T20:23:33.004Z,90.84
2018-11-06T20:26:01.355Z,91.01
2018-11-06T20:28:29.688Z,91.34
2018-11-06T20:30:58.912Z,90.96
2018-11-06T20:33:27.351Z,90.72
2018-11-06T20:35:55.805Z,90.57
2018-11-06T20:38:24.332Z,90.75
2018-11-06T20:40:53.964Z,90.22
2018-11-06T20:43:22.637Z,89.98
2018-11-06T20:45:50.990Z,90.04
2018-11-06T20:48:19.611Z,89.73
2018-11-06T20:50:47.910Z,90.04
2018-11-06T20:53:16.909Z,89.67
2018-11-06T20:55:46.446Z,89.72
2018-11-06T20:58:14.817Z,89.82
2018-11-06T21:00:43.191Z,90.23
2018-11-06T21:03:11.487Z,90.26
2018-11-06T21:05:39.730Z,90.41
2018-11-06T21:08:08.091Z,90.66
2018-11-06T21:10:36.364Z,91.19
2018-11-06T21:13:05.227Z,91.19
2018-11-06T21:15:33.841Z,90.96
2018-11-06T21:18:02.305Z,91.21
2018-11-06T21:20:30.598Z,91.59
2018-11-06T21:22:58.852Z,91.72
2018-11-06T21:25:28.792Z,91.40
2018-11-06T21:27:57.242Z,90.70
2018-11-06T21:30:25.486Z,91.10
2018-11-06T21:32:54.312Z,90.90
2018-11-06T21:35:22.903Z,90.91
2018-11-06T21:37:51.480Z,91.11
2018-11-06T21:40:20.912Z,91.28
2018-11-06T21:42:49.548Z,91.02
2018-11-06T21:45:19.166Z,91.40
2018-11-06T21:47:48.352Z,91.11
2018-11-06T21:50:17.945Z,91.45
2018-11-06T21:52:47.090Z,91.37
2018-11-06T21:55:16.651Z,90.84
2018-11-06T21:57:44.852Z,91.01
2018-11-06T22:00:16.858Z,92.06
2018-11-06T22:02:45.042Z,92.87
2018-11-06T22:05:14.572Z,92.63
2018-11-06T22:07:43.132Z,91.52
2018-11-06T22:10:13.638Z,91.44
2018-11-06T22:12:42.599Z,92.05
2018-11-06T22:15:12.017Z,91.78
2018-11-06T22:17:40.652Z,92.26
2018-11-06T22:20:10.582Z,92.26
2018-11-06T22:22:38.756Z,92.29
2018-11-06T22:25:07.132Z,91.76
2018-11-06T22:27:35.589Z,92.88
2018-11-06T22:30:03.895Z,93.33
2018-11-06T22:32:32.034Z,93.49
2018-11-06T22:35:00.219Z,93.34
2018-11-06T22:37:28.468Z,92.38
2018-11-06T22:39:56.620Z,92.64
2018-11-06T22:42:24.830Z,91.76
2018-11-06T22:44:53.016Z,92.75
2018-11-06T22:47:21.176Z,92.65
2018-11-06T22:49:49.330Z,92.79
2018-11-06T22:52:17.445Z,93.24
2018-11-06T22:54:52.072Z,92.46
2018-11-06T22:57:20.209Z,92.46
2018-11-06T22:59:48.445Z,92.03
2018-11-06T23:02:16.624Z,92.36
2018-11-06T23:04:44.907Z,92.16
2018-11-06T23:07:18.620Z,92.62
2018-11-06T23:09:46.673Z,93.15
2018-11-06T23:12:14.905Z,93.55
2018-11-06T23:14:43.079Z,93.72
2018-11-06T23:17:11.349Z,93.84
2018-11-06T23:19:39.651Z,92.93
2018-11-06T23:22:07.804Z,92.81
2018-11-06T23:24:35.963Z,93.46
2018-11-06T23:27:04.225Z,93.44
2018-11-06T23:29:32.352Z,93.70
2018-11-06T23:32:00.514Z,92.20
2018-11-06T23:34:28.645Z,92.68
2018-11-06T23:36:56.958Z,92.84
2018-11-06T23:39:25.142Z,93.44
2018-11-06T23:41:53.315Z,93.56
2018-11-06T23:44:21.451Z,93.69
2018-11-06T23:46:49.664Z,93.39
2018-11-06T23:49:18.069Z,93.80
2018-11-06T23:51:46.419Z,92.77
2018-11-06T23:54:14.597Z,93.53
2018-11-06T23:56:42.769Z,92.99
2018-11-06T23:59:10.899Z,93.64
